Halfway's Hourly Summary for Friday, March 17, 2017
Hour Temp
(f)
RH
(%)
Solar Rad.
(MJ/m2)
Rainfall
(in)
Wind
(mph)
3/17/2017 12:00 AM 55 24 0 0 6.15
3/17/2017 1:00 AM 53 30 0 0 6.86
3/17/2017 2:00 AM 51 29 0 0 6.12
3/17/2017 3:00 AM 51 27 0 0 7.75
3/17/2017 4:00 AM 48 30 0 0 4.47
3/17/2017 5:00 AM 45 36 0 0 6.39
3/17/2017 6:00 AM 42 38 0 0 5.55
3/17/2017 7:00 AM 41 41 0 0 4.01
3/17/2017 8:00 AM 41 43 0.01 0 3.38
3/17/2017 9:00 AM 47 31 0.35 0 4.3
3/17/2017 10:00 AM 55 25 0.99 0 10.37
3/17/2017 11:00 AM 64 17 1.75 0 14
3/17/2017 12:00 PM 70 16 2.33 0 14.05
3/17/2017 1:00 PM 75 14 2.78 0 14.12
3/17/2017 2:00 PM 78 13 2.87 0 15.88
3/17/2017 3:00 PM 80 12 3.09 0 16.74
3/17/2017 4:00 PM 81 12 2.76 0 16.61
3/17/2017 5:00 PM 82 12 2.35 0 16.54
3/17/2017 6:00 PM 80 13 1.47 0 16.82
3/17/2017 7:00 PM 77 15 0.58 0 14.69
3/17/2017 8:00 PM 72 18 0.14 0 10.58
3/17/2017 9:00 PM 65 27 0 0 7.36
3/17/2017 10:00 PM 60 34 0 0 6.98
3/17/2017 11:00 PM 58 41 0 0 8.08
Data Summary 61 24 21.47 0.00 9.91